Time;durP1;ratioP1;P1;durP2;ratioP2;P2;SDS_P1;SDS_P2;PMS_P1;PMS_P2;Temp;Humidity;BMP_temperature;BMP_pressure;BME280_temperature;BME280_humidity;BME280_pressure;Samples;Min_cycle;Max_cycle;Signal;HPM_P1;HPM_P2
2023/03/12 00:01:10;;;;;;;135.90;9.23;;;;;;;;;;4996497;28;20081;-55
2023/03/12 00:03:35;;;;;;;165.63;10.40;;;;;;;;;;4996578;28;20026;-54
2023/03/12 00:06:01;;;;;;;148.68;9.68;;;;;;;;;;4995730;28;20057;-54
2023/03/12 00:08:27;;;;;;;152.98;9.48;;;;;;;;;;4999738;28;20808;-56
2023/03/12 00:10:52;;;;;;;147.77;9.82;;;;;;;;;;4999579;28;20049;-57
2023/03/12 00:13:17;;;;;;;165.10;9.52;;;;;;;;;;4997736;28;20064;-55
2023/03/12 00:15:42;;;;;;;159.25;10.40;;;;;;;;;;4996933;28;20040;-56
2023/03/12 00:18:08;;;;;;;141.13;9.45;;;;;;;;;;4996722;28;20029;-55
2023/03/12 00:20:33;;;;;;;142.65;9.48;;;;;;;;;;4998468;28;20070;-56
2023/03/12 00:22:58;;;;;;;146.70;9.30;;;;;;;;;;5000169;28;20521;-56
2023/03/12 00:25:23;;;;;;;128.20;9.30;;;;;;;;;;4999476;28;20037;-55
2023/03/12 00:27:49;;;;;;;109.03;7.85;;;;;;;;;;5000560;28;20029;-55
2023/03/12 00:30:14;;;;;;;149.05;9.02;;;;;;;;;;4997558;28;20029;-53
2023/03/12 00:32:39;;;;;;;120.93;8.82;;;;;;;;;;4999690;28;20045;-54
2023/03/12 00:35:05;;;;;;;117.57;8.98;;;;;;;;;;4999381;28;20026;-56
2023/03/12 00:37:32;;;;;;;127.38;8.40;;;;;;;;;;4999268;28;20061;-54
2023/03/12 00:39:57;;;;;;;145.18;9.55;;;;;;;;;;4999837;28;20022;-55
2023/03/12 00:42:22;;;;;;;146.43;10.05;;;;;;;;;;4999414;28;20030;-54
2023/03/12 00:44:47;;;;;;;178.93;9.73;;;;;;;;;;4999499;28;20045;-56
2023/03/12 00:47:13;;;;;;;136.00;8.93;;;;;;;;;;4999696;28;20065;-57
2023/03/12 00:49:38;;;;;;;152.63;9.05;;;;;;;;;;4999639;28;20022;-55
2023/03/12 00:52:04;;;;;;;123.32;8.88;;;;;;;;;;4999405;28;20124;-57
2023/03/12 00:54:29;;;;;;;144.40;9.73;;;;;;;;;;4999229;28;20036;-55
2023/03/12 00:56:54;;;;;;;140.32;9.77;;;;;;;;;;4998987;28;20034;-54
2023/03/12 00:59:19;;;;;;;152.73;10.07;;;;;;;;;;4999651;28;20049;-56
2023/03/12 01:01:45;;;;;;;169.90;10.82;;;;;;;;;;4999024;28;20117;-57
2023/03/12 01:04:10;;;;;;;133.82;10.18;;;;;;;;;;5000180;28;20018;-56
2023/03/12 01:06:35;;;;;;;146.20;9.48;;;;;;;;;;4997463;28;20310;-54
2023/03/12 01:09:01;;;;;;;183.32;11.00;;;;;;;;;;4998744;28;20018;-54
2023/03/12 01:11:27;;;;;;;159.57;10.50;;;;;;;;;;4998707;28;20030;-54
2023/03/12 01:13:52;;;;;;;158.30;10.52;;;;;;;;;;4999460;28;20030;-56
2023/03/12 01:16:17;;;;;;;166.02;11.73;;;;;;;;;;4998030;28;20109;-54
2023/03/12 01:18:42;;;;;;;151.98;10.68;;;;;;;;;;4998575;28;20017;-54
2023/03/12 01:21:08;;;;;;;171.30;11.57;;;;;;;;;;4998400;28;20782;-54
2023/03/12 01:23:33;;;;;;;148.68;11.10;;;;;;;;;;4999482;28;20075;-54
2023/03/12 01:25:58;;;;;;;147.10;11.13;;;;;;;;;;4997649;28;20128;-55
2023/03/12 01:28:24;;;;;;;181.30;11.60;;;;;;;;;;4998803;28;20041;-55
2023/03/12 01:30:49;;;;;;;157.88;10.48;;;;;;;;;;4996240;28;20037;-55
2023/03/12 01:33:15;;;;;;;142.48;9.05;;;;;;;;;;4998871;28;20937;-55
2023/03/12 01:35:41;;;;;;;160.05;10.32;;;;;;;;;;4997422;28;20034;-58
2023/03/12 01:38:07;;;;;;;143.38;9.82;;;;;;;;;;4997949;28;20118;-54
2023/03/12 01:40:34;;;;;;;152.75;10.65;;;;;;;;;;4997995;28;20048;-56
2023/03/12 01:43:13;;;;;;;147.73;10.95;;;;;;;;;;4998343;28;20068;-53
2023/03/12 01:45:54;;;;;;;156.32;11.05;;;;;;;;;;4997656;28;20038;-56
2023/03/12 01:48:19;;;;;;;180.70;11.27;;;;;;;;;;4998284;28;20028;-53
2023/03/12 01:50:44;;;;;;;174.82;11.05;;;;;;;;;;4998327;28;20038;-54
2023/03/12 01:53:10;;;;;;;130.18;7.88;;;;;;;;;;4999177;28;20049;-55
2023/03/12 01:55:35;;;;;;;146.07;9.95;;;;;;;;;;4997311;28;20030;-56
2023/03/12 01:58:01;;;;;;;196.27;11.15;;;;;;;;;;4997412;28;20030;-55
2023/03/12 02:00:26;;;;;;;137.80;9.07;;;;;;;;;;4997460;28;20034;-58
2023/03/12 02:02:53;;;;;;;148.80;10.70;;;;;;;;;;4998199;28;20548;-58
2023/03/12 02:05:24;;;;;;;194.50;12.27;;;;;;;;;;4996464;28;20021;-55
2023/03/12 02:07:49;;;;;;;134.80;8.88;;;;;;;;;;4998253;28;20108;-58
2023/03/12 02:10:14;;;;;;;165.02;9.75;;;;;;;;;;4996928;28;20100;-57
2023/03/12 02:12:40;;;;;;;140.77;9.40;;;;;;;;;;4998529;28;20036;-57
2023/03/12 02:15:05;;;;;;;167.57;9.95;;;;;;;;;;4997153;28;20029;-58
2023/03/12 02:17:31;;;;;;;163.05;7.53;;;;;;;;;;4997076;28;20034;-57
2023/03/12 02:19:59;;;;;;;163.65;10.48;;;;;;;;;;4997579;28;20094;-57
2023/03/12 02:22:24;;;;;;;173.68;10.63;;;;;;;;;;4997632;28;20050;-55
2023/03/12 02:25:00;;;;;;;211.85;11.52;;;;;;;;;;4996881;28;20080;-56
2023/03/12 02:27:26;;;;;;;129.50;9.15;;;;;;;;;;4997131;28;20066;-58
2023/03/12 02:29:51;;;;;;;295.67;14.60;;;;;;;;;;4995832;28;20026;-56
2023/03/12 02:32:20;;;;;;;149.27;10.10;;;;;;;;;;4997062;28;20038;-55
2023/03/12 02:34:46;;;;;;;230.35;12.35;;;;;;;;;;4997643;28;20087;-54
2023/03/12 02:37:12;;;;;;;151.23;10.25;;;;;;;;;;4997264;28;20108;-57
2023/03/12 02:39:37;;;;;;;143.00;9.05;;;;;;;;;;4997844;28;20069;-56
2023/03/12 02:42:03;;;;;;;170.73;10.38;;;;;;;;;;4996926;28;20109;-55
2023/03/12 02:44:30;;;;;;;168.98;11.23;;;;;;;;;;4997301;28;20052;-57
2023/03/12 02:46:56;;;;;;;155.68;10.63;;;;;;;;;;4996903;28;20164;-56
2023/03/12 02:49:22;;;;;;;124.88;8.90;;;;;;;;;;4997246;28;20022;-57
2023/03/12 02:51:48;;;;;;;150.70;8.93;;;;;;;;;;4997506;28;20609;-55
2023/03/12 02:54:14;;;;;;;212.65;11.27;;;;;;;;;;4997850;28;20034;-56
2023/03/12 02:56:39;;;;;;;149.35;8.82;;;;;;;;;;4996725;28;20500;-55
2023/03/12 02:59:05;;;;;;;149.43;8.55;;;;;;;;;;4997491;28;20440;-57
2023/03/12 03:01:33;;;;;;;176.25;10.60;;;;;;;;;;4996663;28;20568;-55
2023/03/12 03:04:02;;;;;;;159.05;9.93;;;;;;;;;;4997812;28;20014;-54
2023/03/12 03:06:28;;;;;;;195.75;10.30;;;;;;;;;;4996561;28;20038;-57
2023/03/12 03:08:54;;;;;;;142.30;9.32;;;;;;;;;;4997495;28;20463;-57
2023/03/12 03:11:23;;;;;;;156.68;9.68;;;;;;;;;;4997210;28;20148;-56
2023/03/12 03:13:48;;;;;;;182.10;9.80;;;;;;;;;;4997672;28;20022;-55
2023/03/12 03:16:13;;;;;;;168.10;9.73;;;;;;;;;;4996721;28;20847;-57
2023/03/12 03:18:38;;;;;;;140.35;9.32;;;;;;;;;;4997547;28;20022;-55
2023/03/12 03:21:05;;;;;;;141.63;8.52;;;;;;;;;;4996788;28;20050;-56
2023/03/12 03:23:30;;;;;;;161.70;9.25;;;;;;;;;;4997552;28;20566;-56
2023/03/12 03:25:56;;;;;;;237.45;10.32;;;;;;;;;;4996095;28;20131;-54
2023/03/12 03:28:22;;;;;;;224.68;10.30;;;;;;;;;;4997509;28;20435;-55
2023/03/12 03:30:48;;;;;;;145.63;8.52;;;;;;;;;;4996064;28;20522;-56
2023/03/12 03:33:13;;;;;;;170.65;9.68;;;;;;;;;;4997393;28;20033;-55
2023/03/12 03:35:38;;;;;;;163.60;7.88;;;;;;;;;;4996479;28;20268;-55
2023/03/12 03:38:03;;;;;;;208.95;10.38;;;;;;;;;;4997270;28;20758;-55
2023/03/12 03:40:29;;;;;;;189.68;9.98;;;;;;;;;;4996560;28;20038;-55
2023/03/12 03:42:54;;;;;;;176.55;9.43;;;;;;;;;;5000250;28;20172;-55
2023/03/12 03:45:19;;;;;;;172.23;8.82;;;;;;;;;;4999843;28;20557;-54
2023/03/12 03:47:45;;;;;;;164.98;9.50;;;;;;;;;;5001237;28;20036;-55
2023/03/12 03:50:10;;;;;;;159.32;9.85;;;;;;;;;;5000271;28;20368;-57
2023/03/12 03:52:36;;;;;;;181.43;10.00;;;;;;;;;;5001195;28;20208;-55
2023/03/12 03:55:01;;;;;;;145.20;8.35;;;;;;;;;;5000669;28;20690;-55
2023/03/12 03:57:26;;;;;;;159.93;8.85;;;;;;;;;;4999892;28;20500;-58
2023/03/12 03:59:51;;;;;;;197.20;10.18;;;;;;;;;;5000541;28;20033;-57
2023/03/12 04:02:17;;;;;;;146.38;8.27;;;;;;;;;;5000107;28;20026;-55
2023/03/12 04:04:43;;;;;;;229.50;11.20;;;;;;;;;;5000076;28;20026;-52
2023/03/12 04:07:08;;;;;;;149.00;8.13;;;;;;;;;;5000303;28;20121;-53
2023/03/12 04:09:33;;;;;;;142.55;8.48;;;;;;;;;;5000500;28;20032;-54
2023/03/12 04:11:58;;;;;;;164.10;7.32;;;;;;;;;;4999729;28;20487;-54
2023/03/12 04:14:24;;;;;;;163.60;8.98;;;;;;;;;;5001076;28;20038;-54
2023/03/12 04:16:49;;;;;;;137.48;8.75;;;;;;;;;;4999190;28;20411;-54
2023/03/12 04:19:14;;;;;;;171.43;8.43;;;;;;;;;;4999960;28;20038;-55
2023/03/12 04:21:39;;;;;;;143.02;7.45;;;;;;;;;;4999727;28;20022;-55
2023/03/12 04:24:05;;;;;;;163.18;9.48;;;;;;;;;;4998649;28;20046;-55
2023/03/12 04:26:31;;;;;;;177.07;8.65;;;;;;;;;;4997183;28;20675;-56
2023/03/12 04:28:56;;;;;;;169.48;10.13;;;;;;;;;;4998607;28;20522;-55
2023/03/12 04:31:21;;;;;;;183.25;10.15;;;;;;;;;;4999399;28;20648;-54
2023/03/12 04:33:46;;;;;;;170.40;9.60;;;;;;;;;;5000058;28;20487;-54
2023/03/12 04:36:13;;;;;;;345.20;16.08;;;;;;;;;;4996686;28;20113;-56
2023/03/12 04:38:38;;;;;;;191.13;10.68;;;;;;;;;;4997640;28;20026;-54
2023/03/12 04:41:06;;;;;;;175.85;9.40;;;;;;;;;;4996982;28;20042;-56
2023/03/12 04:43:31;;;;;;;136.57;7.15;;;;;;;;;;4997296;28;20140;-55
2023/03/12 04:45:57;;;;;;;167.18;9.82;;;;;;;;;;4998706;28;20729;-54
2023/03/12 04:48:22;;;;;;;163.25;9.48;;;;;;;;;;4999712;28;20051;-56
2023/03/12 04:50:48;;;;;;;163.70;9.38;;;;;;;;;;4998806;28;20041;-55
2023/03/12 04:53:13;;;;;;;145.02;9.13;;;;;;;;;;4999488;28;20021;-55
2023/03/12 04:55:38;;;;;;;132.77;8.35;;;;;;;;;;4999185;28;20108;-56
2023/03/12 04:58:04;;;;;;;195.55;10.15;;;;;;;;;;4998930;28;20021;-55
2023/03/12 05:00:29;;;;;;;148.15;8.07;;;;;;;;;;4999128;28;20438;-56
2023/03/12 05:02:54;;;;;;;134.20;7.55;;;;;;;;;;4999370;28;20116;-56
2023/03/12 05:05:19;;;;;;;185.40;8.77;;;;;;;;;;4998001;28;20029;-57
2023/03/12 05:07:45;;;;;;;146.75;8.52;;;;;;;;;;4999221;28;20055;-56
2023/03/12 05:10:10;;;;;;;141.18;8.68;;;;;;;;;;4998901;28;20116;-53
2023/03/12 05:12:35;;;;;;;184.25;9.77;;;;;;;;;;4998945;28;20022;-57
2023/03/12 05:15:00;;;;;;;161.32;8.35;;;;;;;;;;4998468;28;20025;-54
2023/03/12 05:17:26;;;;;;;178.95;9.07;;;;;;;;;;4998162;28;20057;-54
2023/03/12 05:19:51;;;;;;;139.10;8.30;;;;;;;;;;4998927;28;20018;-54
2023/03/12 05:22:16;;;;;;;139.00;8.77;;;;;;;;;;4998567;28;20117;-56
2023/03/12 05:24:42;;;;;;;269.05;13.07;;;;;;;;;;4997504;28;20109;-54
2023/03/12 05:27:07;;;;;;;149.50;8.82;;;;;;;;;;4998294;28;20041;-53
2023/03/12 05:29:34;;;;;;;152.98;9.57;;;;;;;;;;4998817;28;20562;-54
2023/03/12 05:32:00;;;;;;;198.18;9.05;;;;;;;;;;4997772;28;20065;-54
2023/03/12 05:34:25;;;;;;;136.30;8.23;;;;;;;;;;4999105;28;20121;-53
2023/03/12 05:36:50;;;;;;;160.68;8.63;;;;;;;;;;4996829;28;20058;-53
2023/03/12 05:39:15;;;;;;;145.75;8.77;;;;;;;;;;4997509;28;20069;-53
2023/03/12 05:41:41;;;;;;;147.55;8.02;;;;;;;;;;4998331;28;20125;-54
2023/03/12 05:44:06;;;;;;;191.27;9.25;;;;;;;;;;4998389;28;20091;-57
2023/03/12 05:46:31;;;;;;;141.70;7.93;;;;;;;;;;4997420;28;20029;-54
2023/03/12 05:48:57;;;;;;;144.15;8.10;;;;;;;;;;4996135;28;20024;-54
2023/03/12 05:51:22;;;;;;;169.73;10.10;;;;;;;;;;4997773;28;20034;-54
2023/03/12 05:53:48;;;;;;;132.57;8.10;;;;;;;;;;4998846;28;20184;-56
2023/03/12 05:56:14;;;;;;;145.68;8.07;;;;;;;;;;4997582;28;20722;-57
2023/03/12 05:58:39;;;;;;;138.60;8.52;;;;;;;;;;4998291;28;20025;-54
2023/03/12 06:01:19;;;;;;;155.95;9.32;;;;;;;;;;4998272;28;20038;-57
2023/03/12 06:03:44;;;;;;;141.73;8.57;;;;;;;;;;4998069;28;20064;-55
2023/03/12 06:06:10;;;;;;;160.35;9.25;;;;;;;;;;4997127;28;20065;-56
2023/03/12 06:08:35;;;;;;;147.15;9.10;;;;;;;;;;4998192;28;20060;-56
2023/03/12 06:11:00;;;;;;;160.65;8.93;;;;;;;;;;4998075;28;20109;-55
2023/03/12 06:13:27;;;;;;;143.32;7.28;;;;;;;;;;4998537;28;20029;-55
2023/03/12 06:15:52;;;;;;;173.98;9.00;;;;;;;;;;4996828;28;20061;-55
2023/03/12 06:18:17;;;;;;;162.85;9.10;;;;;;;;;;4998184;28;20141;-55
2023/03/12 06:20:43;;;;;;;172.68;8.93;;;;;;;;;;4997807;28;20041;-56
2023/03/12 06:23:08;;;;;;;189.05;9.95;;;;;;;;;;4998157;28;20026;-58
2023/03/12 06:25:33;;;;;;;153.80;7.93;;;;;;;;;;4997252;28;20033;-55
2023/03/12 06:27:58;;;;;;;134.27;8.18;;;;;;;;;;4997641;28;20025;-55
2023/03/12 06:30:23;;;;;;;116.35;7.47;;;;;;;;;;4997170;28;20033;-57
2023/03/12 06:32:49;;;;;;;114.57;7.10;;;;;;;;;;4998386;28;20028;-56
2023/03/12 06:35:14;;;;;;;156.95;8.18;;;;;;;;;;4996789;28;20257;-58
2023/03/12 06:37:39;;;;;;;132.93;8.05;;;;;;;;;;4998054;28;20036;-56
2023/03/12 06:40:08;;;;;;;122.32;7.63;;;;;;;;;;4997990;28;20481;-57
2023/03/12 06:42:33;;;;;;;160.15;8.23;;;;;;;;;;4997975;28;20764;-56
2023/03/12 06:44:59;;;;;;;135.00;8.20;;;;;;;;;;4997854;28;20028;-57
2023/03/12 06:47:24;;;;;;;132.60;7.90;;;;;;;;;;4997872;28;20393;-55
2023/03/12 06:49:49;;;;;;;138.50;7.68;;;;;;;;;;4998336;28;20025;-56
2023/03/12 06:52:15;;;;;;;121.67;6.77;;;;;;;;;;4997988;28;20044;-55
2023/03/12 06:54:40;;;;;;;195.87;9.47;;;;;;;;;;4997399;28;20260;-55
2023/03/12 06:57:05;;;;;;;146.32;8.70;;;;;;;;;;4997652;28;20265;-56
2023/03/12 06:59:30;;;;;;;116.10;7.07;;;;;;;;;;4998286;28;20156;-56
2023/03/12 07:01:56;;;;;;;142.93;8.27;;;;;;;;;;4997569;28;20419;-58
2023/03/12 07:04:21;;;;;;;104.32;6.95;;;;;;;;;;4998343;28;20022;-56
2023/03/12 07:06:50;;;;;;;126.95;8.00;;;;;;;;;;4996858;28;20041;-55
2023/03/12 07:09:16;;;;;;;120.32;7.28;;;;;;;;;;4997860;28;20084;-57
2023/03/12 07:11:42;;;;;;;114.32;6.40;;;;;;;;;;4997700;28;20037;-56
2023/03/12 07:14:07;;;;;;;115.33;6.40;;;;;;;;;;4998139;28;20010;-58
2023/03/12 07:16:33;;;;;;;122.35;6.15;;;;;;;;;;4997140;28;20305;-56
2023/03/12 07:18:58;;;;;;;114.82;5.78;;;;;;;;;;5002235;28;20029;-56
2023/03/12 07:21:24;;;;;;;137.45;7.00;;;;;;;;;;5001216;28;20037;-57
2023/03/12 07:23:49;;;;;;;102.93;6.65;;;;;;;;;;5002328;28;20046;-59
2023/03/12 07:26:15;;;;;;;97.85;5.85;;;;;;;;;;5000535;28;20104;-56
2023/03/12 07:28:40;;;;;;;116.38;6.15;;;;;;;;;;5001232;28;20018;-57
2023/03/12 07:31:05;;;;;;;129.75;7.50;;;;;;;;;;5001417;28;20029;-58
2023/03/12 07:33:31;;;;;;;131.48;7.18;;;;;;;;;;5001146;28;20025;-56
2023/03/12 07:35:56;;;;;;;113.22;6.63;;;;;;;;;;5000253;28;20036;-56
2023/03/12 07:38:21;;;;;;;128.82;8.02;;;;;;;;;;4999947;28;20578;-58
2023/03/12 07:40:50;;;;;;;150.07;7.45;;;;;;;;;;4999612;28;20061;-57
2023/03/12 07:43:16;;;;;;;119.97;8.05;;;;;;;;;;5000188;28;20072;-57
2023/03/12 07:45:41;;;;;;;307.67;14.57;;;;;;;;;;4996656;28;20137;-55
2023/03/12 07:48:06;;;;;;;141.90;8.15;;;;;;;;;;4999328;28;20029;-56
2023/03/12 07:50:32;;;;;;;120.55;7.07;;;;;;;;;;4999536;28;20387;-57
2023/03/12 07:52:57;;;;;;;154.85;7.65;;;;;;;;;;4999899;28;20056;-56
2023/03/12 07:55:23;;;;;;;130.65;6.88;;;;;;;;;;4999046;28;20030;-56
2023/03/12 07:57:48;;;;;;;119.40;6.40;;;;;;;;;;5000229;28;20029;-58
2023/03/12 08:00:14;;;;;;;150.30;7.97;;;;;;;;;;4998525;28;20026;-58
2023/03/12 08:02:39;;;;;;;126.55;6.68;;;;;;;;;;4989405;28;20022;-57
2023/03/12 08:05:05;;;;;;;102.43;5.78;;;;;;;;;;4999941;28;20487;-56
2023/03/12 08:07:31;;;;;;;97.13;6.28;;;;;;;;;;5001948;28;20116;-57
2023/03/12 08:09:59;;;;;;;96.25;5.18;;;;;;;;;;5001781;28;20026;-58
2023/03/12 08:12:24;;;;;;;114.70;6.28;;;;;;;;;;5000996;28;20690;-60
2023/03/12 08:14:49;;;;;;;126.85;6.10;;;;;;;;;;5001532;28;20629;-59
2023/03/12 08:17:14;;;;;;;122.73;6.90;;;;;;;;;;5001199;28;20416;-59
2023/03/12 08:19:41;;;;;;;115.73;5.97;;;;;;;;;;5000832;28;20558;-57
2023/03/12 08:22:06;;;;;;;91.82;5.00;;;;;;;;;;5001557;28;20261;-57
2023/03/12 08:24:31;;;;;;;137.13;6.47;;;;;;;;;;5001571;28;20156;-59
2023/03/12 08:26:57;;;;;;;110.53;6.13;;;;;;;;;;5000570;28;20129;-59
2023/03/12 08:29:22;;;;;;;82.43;5.03;;;;;;;;;;5001259;28;20041;-57
2023/03/12 08:31:47;;;;;;;122.18;5.65;;;;;;;;;;5000519;28;20269;-57
2023/03/12 08:34:12;;;;;;;114.15;6.47;;;;;;;;;;5001460;28;20049;-56
2023/03/12 08:36:38;;;;;;;111.78;5.38;;;;;;;;;;4961775;28;1102837;-56
2023/03/12 08:39:03;;;;;;;133.47;6.40;;;;;;;;;;5000691;28;20022;-57
2023/03/12 08:41:29;;;;;;;84.57;5.00;;;;;;;;;;5002279;28;20284;-56
2023/03/12 08:43:54;;;;;;;103.13;5.18;;;;;;;;;;5002172;28;20022;-56
2023/03/12 08:46:19;;;;;;;101.60;4.82;;;;;;;;;;5000621;28;20056;-56
2023/03/12 08:48:44;;;;;;;94.27;5.63;;;;;;;;;;5001833;28;20040;-57
2023/03/12 08:51:10;;;;;;;113.35;5.20;;;;;;;;;;5001876;28;20276;-57
2023/03/12 08:53:35;;;;;;;90.63;4.53;;;;;;;;;;5002404;28;20036;-58
2023/03/12 08:56:01;;;;;;;83.40;4.60;;;;;;;;;;5001713;28;20334;-58
2023/03/12 08:58:26;;;;;;;107.20;5.00;;;;;;;;;;5001579;28;20064;-59
2023/03/12 09:00:53;;;;;;;78.40;4.03;;;;;;;;;;5001761;28;20041;-58
2023/03/12 09:03:18;;;;;;;116.13;6.60;;;;;;;;;;5001929;28;20451;-59
2023/03/12 09:05:43;;;;;;;120.50;6.28;;;;;;;;;;5000946;28;20850;-58
2023/03/12 09:08:10;;;;;;;122.43;5.65;;;;;;;;;;5001212;28;20157;-59
2023/03/12 09:10:35;;;;;;;93.95;4.95;;;;;;;;;;5001399;28;20037;-59
2023/03/12 09:13:01;;;;;;;72.15;4.30;;;;;;;;;;5001504;28;20062;-59
2023/03/12 09:15:27;;;;;;;96.28;5.35;;;;;;;;;;5000670;28;20076;-59
2023/03/12 09:17:52;;;;;;;108.45;5.75;;;;;;;;;;5001466;28;20095;-58
2023/03/12 09:20:18;;;;;;;98.70;5.07;;;;;;;;;;5000766;28;20034;-59
2023/03/12 09:22:44;;;;;;;95.85;5.15;;;;;;;;;;5002313;28;20018;-59
2023/03/12 09:25:10;;;;;;;110.25;5.82;;;;;;;;;;5000031;28;20041;-58
2023/03/12 09:27:39;;;;;;;96.10;5.70;;;;;;;;;;5002194;28;20032;-57
2023/03/12 09:30:05;;;;;;;73.30;4.20;;;;;;;;;;5001380;28;20022;-57
2023/03/12 09:32:31;;;;;;;80.10;4.32;;;;;;;;;;5000903;28;20042;-59
2023/03/12 09:34:56;;;;;;;102.75;5.88;;;;;;;;;;5000961;28;20033;-60
2023/03/12 09:37:21;;;;;;;119.40;6.15;;;;;;;;;;4999900;28;20046;-56
2023/03/12 09:39:48;;;;;;;90.00;4.85;;;;;;;;;;5000031;28;20451;-58
2023/03/12 09:42:18;;;;;;;72.10;3.97;;;;;;;;;;5000808;28;20044;-57
2023/03/12 09:44:44;;;;;;;163.35;7.38;;;;;;;;;;5000023;28;20022;-56
2023/03/12 09:47:22;;;;;;;101.32;5.72;;;;;;;;;;5000580;28;20034;-58
2023/03/12 09:49:55;;;;;;;126.43;6.40;;;;;;;;;;4992484;28;20032;-58
2023/03/12 09:52:21;;;;;;;88.90;5.00;;;;;;;;;;5000583;28;20041;-57
2023/03/12 09:54:56;;;;;;;160.97;7.10;;;;;;;;;;4999416;28;20017;-59
2023/03/12 09:57:23;;;;;;;91.65;4.63;;;;;;;;;;5000617;28;20261;-59
2023/03/12 09:59:49;;;;;;;120.00;5.70;;;;;;;;;;4999908;28;20034;-57
2023/03/12 10:02:25;;;;;;;97.20;5.05;;;;;;;;;;5000391;28;20030;-59
2023/03/12 10:05:10;;;;;;;141.32;6.45;;;;;;;;;;5000142;28;20026;-59
2023/03/12 10:07:47;;;;;;;169.73;6.82;;;;;;;;;;4995170;28;20207;-58
2023/03/12 10:10:12;;;;;;;114.85;5.85;;;;;;;;;;4995736;28;20728;-57
2023/03/12 10:12:37;;;;;;;107.17;5.53;;;;;;;;;;4998623;28;20029;-57
2023/03/12 10:15:17;;;;;;;104.67;5.47;;;;;;;;;;4998556;28;20379;-56
2023/03/12 10:17:45;;;;;;;105.05;6.00;;;;;;;;;;4999980;28;20306;-59
2023/03/12 10:20:29;;;;;;;117.03;5.80;;;;;;;;;;4998977;28;20029;-57
2023/03/12 10:23:06;;;;;;;89.20;4.65;;;;;;;;;;4999874;28;20022;-57
2023/03/12 10:25:43;;;;;;;110.60;5.63;;;;;;;;;;4998520;28;20037;-57
2023/03/12 10:28:11;;;;;;;117.78;5.82;;;;;;;;;;4991421;28;20018;-57
2023/03/12 10:30:40;;;;;;;141.57;6.50;;;;;;;;;;4997551;28;20040;-54
2023/03/12 10:33:09;;;;;;;95.25;5.28;;;;;;;;;;4999417;28;20434;-58
2023/03/12 10:35:35;;;;;;;107.15;6.03;;;;;;;;;;4997541;28;20037;-58
2023/03/12 10:38:04;;;;;;;97.13;5.20;;;;;;;;;;4998618;28;20045;-57
2023/03/12 10:40:33;;;;;;;93.05;5.05;;;;;;;;;;4998930;28;20127;-58
2023/03/12 10:42:59;;;;;;;97.40;5.30;;;;;;;;;;4999217;28;20032;-56
2023/03/12 10:45:25;;;;;;;92.55;4.82;;;;;;;;;;4997885;28;20025;-57
2023/03/12 10:47:56;;;;;;;94.57;4.90;;;;;;;;;;4999454;28;20068;-55
2023/03/12 10:50:21;;;;;;;90.13;6.47;;;;;;;;;;4998343;28;20097;-57
2023/03/12 10:52:48;;;;;;;96.47;5.37;;;;;;;;;;4999571;28;20101;-58
2023/03/12 10:55:19;;;;;;;110.82;5.72;;;;;;;;;;4997983;28;20303;-57
2023/03/12 10:57:45;;;;;;;131.35;6.45;;;;;;;;;;4995804;28;20018;-56
2023/03/12 11:00:17;;;;;;;132.48;6.40;;;;;;;;;;4996798;28;20048;-55
2023/03/12 11:02:44;;;;;;;92.38;5.25;;;;;;;;;;4998332;28;20022;-55
2023/03/12 11:05:28;;;;;;;121.40;5.93;;;;;;;;;;4997711;28;20033;-58
2023/03/12 11:07:53;;;;;;;92.30;5.32;;;;;;;;;;4999013;28;20078;-57
2023/03/12 11:10:20;;;;;;;106.20;6.15;;;;;;;;;;4998157;28;20026;-57
2023/03/12 11:13:02;;;;;;;110.13;5.63;;;;;;;;;;4999755;28;20030;-56
2023/03/12 11:15:38;;;;;;;124.40;5.20;;;;;;;;;;4998052;28;20515;-56
2023/03/12 11:18:17;;;;;;;105.85;5.50;;;;;;;;;;4999749;28;20095;-57
2023/03/12 11:20:42;;;;;;;153.38;7.18;;;;;;;;;;4998408;28;20065;-56
2023/03/12 11:23:15;;;;;;;103.47;5.53;;;;;;;;;;4999338;28;20109;-56
2023/03/12 11:25:40;;;;;;;113.80;5.85;;;;;;;;;;4997390;28;20034;-57
2023/03/12 11:28:10;;;;;;;105.50;5.40;;;;;;;;;;4995422;28;20044;-55
2023/03/12 11:30:37;;;;;;;118.75;6.05;;;;;;;;;;4996719;28;20061;-57
2023/03/12 11:33:03;;;;;;;120.10;6.78;;;;;;;;;;4999095;28;20026;-55
2023/03/12 11:35:37;;;;;;;99.60;5.82;;;;;;;;;;4997925;28;20064;-60
2023/03/12 11:38:15;;;;;;;126.68;6.70;;;;;;;;;;4998762;28;20787;-56
2023/03/12 11:40:59;;;;;;;94.70;5.93;;;;;;;;;;4998846;28;20103;-56
2023/03/12 11:43:50;;;;;;;99.82;5.25;;;;;;;;;;4998278;28;20883;-58
2023/03/12 11:46:35;;;;;;;132.63;5.80;;;;;;;;;;4997051;28;20054;-55
2023/03/12 11:49:08;;;;;;;99.63;5.38;;;;;;;;;;4998779;28;20030;-55
2023/03/12 11:51:42;;;;;;;89.82;4.40;;;;;;;;;;4998283;28;20038;-57
2023/03/12 11:54:19;;;;;;;116.43;5.40;;;;;;;;;;4998982;28;20973;-58
2023/03/12 11:56:48;;;;;;;126.97;6.10;;;;;;;;;;4995053;28;20044;-56
2023/03/12 11:59:13;;;;;;;127.00;6.38;;;;;;;;;;4996466;28;20025;-58
2023/03/12 12:01:46;;;;;;;111.50;5.17;;;;;;;;;;4997614;28;20116;-57
2023/03/12 12:04:17;;;;;;;94.80;5.53;;;;;;;;;;5001910;28;20028;-55
2023/03/12 12:06:57;;;;;;;105.88;5.45;;;;;;;;;;5000825;28;20070;-56
2023/03/12 12:09:45;;;;;;;172.15;7.00;;;;;;;;;;4999782;28;20025;-55
2023/03/12 12:12:19;;;;;;;86.00;5.63;;;;;;;;;;4991984;28;20065;-56
2023/03/12 12:14:53;;;;;;;192.25;9.35;;;;;;;;;;4999291;28;20567;-57
2023/03/12 12:17:18;;;;;;;125.72;7.47;;;;;;;;;;5001611;28;20091;-56
2023/03/12 12:19:43;;;;;;;131.57;7.07;;;;;;;;;;5002046;28;20033;-57
2023/03/12 12:22:32;;;;;;;126.55;6.97;;;;;;;;;;5001642;28;20108;-57
2023/03/12 12:24:57;;;;;;;86.47;5.72;;;;;;;;;;4995952;28;20026;-56
2023/03/12 12:27:24;;;;;;;121.30;7.30;;;;;;;;;;4999086;28;20088;-56
2023/03/12 12:29:52;;;;;;;158.70;8.15;;;;;;;;;;4998610;28;20257;-56
2023/03/12 12:32:26;;;;;;;115.28;7.40;;;;;;;;;;5001352;28;20061;-55
2023/03/12 12:34:52;;;;;;;154.60;8.38;;;;;;;;;;5000793;28;20026;-57
2023/03/12 12:37:29;;;;;;;121.90;7.65;;;;;;;;;;5000364;28;20046;-56
2023/03/12 12:40:11;;;;;;;114.43;6.90;;;;;;;;;;4998999;28;20512;-58
2023/03/12 12:42:42;;;;;;;113.00;6.50;;;;;;;;;;5001348;28;20703;-57
2023/03/12 12:45:11;;;;;;;140.27;7.50;;;;;;;;;;4999981;28;20475;-55
2023/03/12 12:47:41;;;;;;;69.50;4.35;;;;;;;;;;5014679;28;20111;-55
2023/03/12 12:50:13;;;;;;;118.38;8.63;;;;;;;;;;4999303;28;20033;-58
2023/03/12 12:52:39;;;;;;;124.50;8.73;;;;;;;;;;4999443;28;20049;-55
2023/03/12 12:55:10;;;;;;;134.30;8.80;;;;;;;;;;5000238;28;20392;-55
2023/03/12 12:57:43;;;;;;;107.43;6.35;;;;;;;;;;5001206;28;20025;-55
2023/03/12 13:00:14;;;;;;;129.30;8.65;;;;;;;;;;5001237;28;20028;-56
2023/03/12 13:02:41;;;;;;;110.50;7.20;;;;;;;;;;5000713;28;20117;-55
2023/03/12 13:05:35;;;;;;;105.70;8.98;;;;;;;;;;4999927;28;20020;-55
2023/03/12 13:08:01;;;;;;;108.35;6.10;;;;;;;;;;4988638;28;20049;-55
2023/03/12 13:10:32;;;;;;;119.43;8.02;;;;;;;;;;4998684;28;20668;-58
2023/03/12 13:12:59;;;;;;;112.70;7.70;;;;;;;;;;4999747;28;20025;-55
2023/03/12 13:15:30;;;;;;;118.45;9.80;;;;;;;;;;4998685;28;20038;-56
2023/03/12 13:17:55;;;;;;;145.17;10.17;;;;;;;;;;5000382;28;20456;-58
2023/03/12 13:20:23;;;;;;;115.23;9.30;;;;;;;;;;5000266;28;20595;-57
2023/03/12 13:22:48;;;;;;;142.80;9.85;;;;;;;;;;5000301;28;20257;-55
2023/03/12 13:25:23;;;;;;;121.43;9.87;;;;;;;;;;4999016;28;20607;-55
2023/03/12 13:27:55;;;;;;;144.43;10.27;;;;;;;;;;5000430;28;20622;-57
2023/03/12 13:30:26;;;;;;;116.70;9.10;;;;;;;;;;4999937;28;20028;-57
2023/03/12 13:32:58;;;;;;;120.60;7.38;;;;;;;;;;5000576;28;20022;-57
2023/03/12 13:35:23;;;;;;;134.52;10.27;;;;;;;;;;4999058;28;20435;-56
2023/03/12 13:37:51;;;;;;;165.70;11.30;;;;;;;;;;4995955;28;20598;-58
2023/03/12 13:40:29;;;;;;;159.32;11.90;;;;;;;;;;4997007;28;20800;-57
2023/03/12 13:43:04;;;;;;;122.47;10.30;;;;;;;;;;5000226;28;20120;-57
2023/03/12 13:45:30;;;;;;;128.63;9.13;;;;;;;;;;4999141;28;20871;-58
2023/03/12 13:47:58;;;;;;;114.07;8.88;;;;;;;;;;4999958;28;20022;-55
2023/03/12 13:50:23;;;;;;;109.65;9.48;;;;;;;;;;4999486;28;20523;-55
2023/03/12 13:53:01;;;;;;;115.97;9.65;;;;;;;;;;5000590;28;20017;-55
2023/03/12 13:55:27;;;;;;;121.82;9.05;;;;;;;;;;4998976;28;20042;-58
2023/03/12 13:57:54;;;;;;;130.77;9.65;;;;;;;;;;5000290;28;20030;-55
2023/03/12 14:00:19;;;;;;;112.95;9.73;;;;;;;;;;4994396;28;20033;-57
2023/03/12 14:02:50;;;;;;;142.38;9.68;;;;;;;;;;5000373;28;20014;-56
2023/03/12 14:05:15;;;;;;;118.05;9.80;;;;;;;;;;5000237;28;20479;-57
2023/03/12 14:07:59;;;;;;;129.27;9.93;;;;;;;;;;4997450;28;20088;-57
2023/03/12 14:10:45;;;;;;;108.22;9.27;;;;;;;;;;4999196;28;20429;-56
2023/03/12 14:13:23;;;;;;;127.88;8.13;;;;;;;;;;4999955;28;20129;-56
2023/03/12 14:15:48;;;;;;;129.55;9.27;;;;;;;;;;5000084;28;20122;-57
2023/03/12 14:18:19;;;;;;;140.20;6.83;;;;;;;;;;4996926;28;20046;-56